createdAt,value
2018-03-06T00:02:27.676Z,36.75
2018-03-06T00:04:55.775Z,35.25
2018-03-06T00:07:23.988Z,37.28
2018-03-06T00:09:52.156Z,37.00
2018-03-06T00:12:20.455Z,34.25
2018-03-06T00:14:48.599Z,29.75
2018-03-06T00:17:21.046Z,31.85
2018-03-06T00:19:49.134Z,29.00
2018-03-06T00:22:17.334Z,31.95
2018-03-06T00:24:45.521Z,34.00
2018-03-06T00:27:13.601Z,29.92
2018-03-06T00:29:41.916Z,30.83
2018-03-06T00:32:10.202Z,33.58
2018-03-06T00:34:38.447Z,30.17
2018-03-06T00:37:06.686Z,31.48
2018-03-06T00:39:35.095Z,31.73
2018-03-06T00:42:03.496Z,30.12
2018-03-06T00:44:31.796Z,36.75
2018-03-06T00:47:00.095Z,36.00
2018-03-06T00:49:28.666Z,35.42
2018-03-06T00:51:56.773Z,30.65
2018-03-06T00:54:25.184Z,42.58
2018-03-06T00:56:53.484Z,35.92
2018-03-06T00:59:21.781Z,37.22
2018-03-06T01:01:49.967Z,32.35
2018-03-06T01:04:18.274Z,35.28
2018-03-06T01:06:46.362Z,31.87
2018-03-06T01:09:14.554Z,32.50
2018-03-06T01:11:42.855Z,37.10
2018-03-06T01:14:11.157Z,32.45
2018-03-06T01:16:39.435Z,33.63
2018-03-06T01:19:07.839Z,32.13
2018-03-06T01:21:36.242Z,39.08
2018-03-06T01:24:04.634Z,30.90
2018-03-06T01:26:32.723Z,36.55
2018-03-06T01:29:01.039Z,29.48
2018-03-06T01:31:29.220Z,34.45
2018-03-06T01:33:57.514Z,32.55
2018-03-06T01:36:25.524Z,30.65
2018-03-06T01:38:53.855Z,31.02
2018-03-06T01:41:21.995Z,31.45
2018-03-06T01:43:50.195Z,32.80
2018-03-06T01:46:18.397Z,28.92
2018-03-06T01:48:46.677Z,33.65
2018-03-06T01:51:14.884Z,28.35
2018-03-06T01:53:43.080Z,27.42
2018-03-06T01:56:11.271Z,28.45
2018-03-06T01:58:39.468Z,34.05
2018-03-06T02:01:07.860Z,29.10
2018-03-06T02:03:36.160Z,32.00
2018-03-06T02:06:04.458Z,29.85
2018-03-06T02:08:32.759Z,34.17
2018-03-06T02:11:00.984Z,32.65
2018-03-06T02:13:29.138Z,29.33
2018-03-06T02:15:57.358Z,32.25
2018-03-06T02:18:25.737Z,36.38
2018-03-06T02:20:54.020Z,36.08
2018-03-06T02:23:22.217Z,39.00
2018-03-06T02:25:50.419Z,32.25
2018-03-06T02:28:18.613Z,32.83
2018-03-06T02:30:46.918Z,31.65
2018-03-06T02:33:15.202Z,33.10
2018-03-06T02:35:43.507Z,37.15
2018-03-06T02:38:11.895Z,30.08
2018-03-06T02:40:40.196Z,35.40
2018-03-06T02:43:08.497Z,34.03
2018-03-06T02:45:36.957Z,34.03
2018-03-06T02:48:05.291Z,28.52
2018-03-06T02:50:33.597Z,34.13
2018-03-06T02:53:01.680Z,30.00
2018-03-06T02:55:29.985Z,29.65
2018-03-06T02:57:58.074Z,33.65
2018-03-06T03:00:26.358Z,33.28
2018-03-06T03:02:54.453Z,26.77
2018-03-06T03:05:22.648Z,37.65
2018-03-06T03:07:50.847Z,30.52
2018-03-06T03:10:19.050Z,30.77
2018-03-06T03:12:47.127Z,34.90
2018-03-06T03:15:15.324Z,33.13
2018-03-06T03:17:43.723Z,33.45
2018-03-06T03:20:12.221Z,34.50
2018-03-06T03:22:40.604Z,39.33
2018-03-06T03:25:09.036Z,38.30
2018-03-06T03:27:37.318Z,33.40
2018-03-06T03:30:05.626Z,33.70
2018-03-06T03:32:33.654Z,31.50
2018-03-06T03:35:01.964Z,38.35
2018-03-06T03:37:30.316Z,36.67
2018-03-06T03:39:58.510Z,36.80
2018-03-06T03:42:26.708Z,35.67
2018-03-06T03:44:54.986Z,32.42
2018-03-06T03:47:23.328Z,40.12
2018-03-06T03:49:51.722Z,35.20
2018-03-06T03:52:19.974Z,30.30
2018-03-06T03:54:48.167Z,33.33
2018-03-06T03:57:16.502Z,31.05
2018-03-06T03:59:44.766Z,34.40
2018-03-06T04:02:13.062Z,33.45
2018-03-06T04:04:41.467Z,32.10
2018-03-06T04:07:09.596Z,32.60
2018-03-06T04:09:38.057Z,31.10
2018-03-06T04:12:06.380Z,31.05
2018-03-06T04:14:34.686Z,27.13
2018-03-06T04:17:02.854Z,31.67
2018-03-06T04:19:31.143Z,35.40
2018-03-06T04:21:59.343Z,31.42
2018-03-06T04:24:27.536Z,29.52
2018-03-06T04:26:55.646Z,31.08
2018-03-06T04:29:24.116Z,32.20
2018-03-06T04:31:52.336Z,28.77
2018-03-06T04:34:20.518Z,28.00
2018-03-06T04:36:48.716Z,29.60
2018-03-06T04:39:16.996Z,29.30
2018-03-06T04:41:45.304Z,30.42
2018-03-06T04:44:13.802Z,33.95
2018-03-06T04:46:42.098Z,29.05
2018-03-06T04:49:10.420Z,29.92
2018-03-06T04:51:38.788Z,32.85
2018-03-06T04:54:06.996Z,26.92
2018-03-06T04:56:35.959Z,31.33
2018-03-06T04:59:04.245Z,32.80
2018-03-06T05:01:32.618Z,34.80
2018-03-06T05:04:00.909Z,31.23
2018-03-06T05:06:29.220Z,30.73
2018-03-06T05:08:57.357Z,33.00
2018-03-06T05:11:25.474Z,37.15
2018-03-06T05:13:53.568Z,32.45
2018-03-06T05:16:21.859Z,29.58
2018-03-06T05:18:50.175Z,29.67
2018-03-06T05:21:18.566Z,31.55
2018-03-06T05:23:46.806Z,32.17
2018-03-06T05:26:15.265Z,35.72
2018-03-06T05:28:44.681Z,30.75
2018-03-06T05:31:12.920Z,35.17
2018-03-06T05:33:41.276Z,28.02
2018-03-06T05:36:09.556Z,31.37
2018-03-06T05:38:37.871Z,30.60
2018-03-06T05:41:06.161Z,34.60
2018-03-06T05:43:34.456Z,34.38
2018-03-06T05:46:02.866Z,32.47
2018-03-06T05:48:31.026Z,33.97
2018-03-06T05:50:59.162Z,34.45
2018-03-06T05:53:27.339Z,36.03
2018-03-06T05:55:55.670Z,29.40
2018-03-06T05:58:23.722Z,39.15
2018-03-06T06:00:51.921Z,35.58
2018-03-06T06:03:20.326Z,31.33
2018-03-06T06:05:48.525Z,33.95
2018-03-06T06:08:16.816Z,36.10
2018-03-06T06:10:45.214Z,32.55
2018-03-06T06:13:13.335Z,32.67
2018-03-06T06:15:41.705Z,34.63
2018-03-06T06:18:09.891Z,29.77
2018-03-06T06:20:38.095Z,33.88
2018-03-06T06:23:06.188Z,35.63
2018-03-06T06:25:34.475Z,33.25
2018-03-06T06:28:02.578Z,38.08
2018-03-06T06:30:30.779Z,32.67
2018-03-06T06:32:58.865Z,34.35
2018-03-06T06:35:27.060Z,44.22
2018-03-06T06:37:55.243Z,40.75
2018-03-06T06:40:23.438Z,34.28
2018-03-06T06:42:51.629Z,32.58
2018-03-06T06:45:20.023Z,33.85
2018-03-06T06:47:48.329Z,33.13
2018-03-06T06:50:16.632Z,35.55
2018-03-06T06:52:44.937Z,30.37
2018-03-06T06:55:13.116Z,34.13
2018-03-06T06:57:41.211Z,29.02
2018-03-06T07:00:09.290Z,30.10
2018-03-06T07:02:37.394Z,32.20
2018-03-06T07:05:05.497Z,35.67
2018-03-06T07:07:33.535Z,32.10
2018-03-06T07:10:01.568Z,31.75
2018-03-06T07:12:30.380Z,32.45
2018-03-06T07:14:58.574Z,34.90
2018-03-06T07:17:26.757Z,39.70
2018-03-06T07:19:54.855Z,38.58
2018-03-06T07:22:23.150Z,42.03
2018-03-06T07:24:52.104Z,37.28
2018-03-06T07:27:20.356Z,42.47
2018-03-06T07:29:48.554Z,37.85
2018-03-06T07:32:16.956Z,36.40
2018-03-06T07:34:45.358Z,40.28
2018-03-06T07:37:13.596Z,37.05
2018-03-06T07:39:41.760Z,32.63
2018-03-06T07:42:09.892Z,43.42
2018-03-06T07:44:38.138Z,32.38
2018-03-06T07:47:06.327Z,46.88
2018-03-06T07:49:34.373Z,37.58
2018-03-06T07:52:02.844Z,29.17
2018-03-06T07:54:30.946Z,38.40
2018-03-06T07:56:59.056Z,34.15
2018-03-06T07:59:27.184Z,33.67
2018-03-06T08:01:55.285Z,35.08
2018-03-06T08:04:23.477Z,30.67
2018-03-06T08:06:51.775Z,30.15
2018-03-06T08:09:20.084Z,29.15
2018-03-06T08:11:48.376Z,28.77
2018-03-06T08:14:16.665Z,30.67
2018-03-06T08:16:44.962Z,32.25
2018-03-06T08:19:13.020Z,36.30
2018-03-06T08:21:41.253Z,35.00
2018-03-06T08:24:09.340Z,32.30
2018-03-06T08:26:37.544Z,30.60
2018-03-06T08:29:05.733Z,30.15
2018-03-06T08:31:33.925Z,29.35
2018-03-06T08:34:02.140Z,27.35
2018-03-06T08:36:30.420Z,26.50
2018-03-06T08:38:58.712Z,31.42
2018-03-06T08:41:26.837Z,31.85
2018-03-06T08:43:55.215Z,24.83
2018-03-06T08:46:23.607Z,29.02
2018-03-06T08:48:51.918Z,29.50
2018-03-06T08:51:20.199Z,28.73
2018-03-06T08:53:48.601Z,27.75
2018-03-06T08:56:17.716Z,28.25
2018-03-06T08:58:46.070Z,30.48
2018-03-06T09:01:14.618Z,29.25
2018-03-06T09:03:42.708Z,22.77
2018-03-06T09:06:10.908Z,29.25
2018-03-06T09:08:38.985Z,28.55
2018-03-06T09:11:07.184Z,25.80
2018-03-06T09:13:35.317Z,24.27
2018-03-06T09:16:03.677Z,25.88
2018-03-06T09:18:31.860Z,26.33
2018-03-06T09:21:00.176Z,27.42
2018-03-06T09:23:28.666Z,29.58
2018-03-06T09:25:57.441Z,29.05
2018-03-06T09:28:25.865Z,28.85
2018-03-06T09:30:54.286Z,26.83
2018-03-06T09:33:22.570Z,26.85
2018-03-06T09:35:50.979Z,27.75
2018-03-06T09:38:19.214Z,29.67
2018-03-06T09:40:47.576Z,29.42
2018-03-06T09:43:15.855Z,28.55
2018-03-06T09:45:44.163Z,29.33
2018-03-06T09:48:12.316Z,26.65
2018-03-06T09:50:40.536Z,27.10
2018-03-06T09:53:08.659Z,27.27
2018-03-06T09:55:36.935Z,33.25
2018-03-06T09:58:05.116Z,27.58
2018-03-06T10:00:33.224Z,29.73
2018-03-06T10:03:01.410Z,30.48
2018-03-06T10:05:29.611Z,29.33
2018-03-06T10:07:57.896Z,28.23
2018-03-06T10:10:26.202Z,28.35
2018-03-06T10:12:54.547Z,26.67
2018-03-06T10:15:22.901Z,25.62
2018-03-06T10:17:51.092Z,28.73
2018-03-06T10:20:19.165Z,29.80
2018-03-06T10:22:47.704Z,26.73
2018-03-06T10:25:16.081Z,24.52
2018-03-06T10:27:44.267Z,23.52
2018-03-06T10:30:12.522Z,24.55
2018-03-06T10:32:40.768Z,25.02
2018-03-06T10:35:08.872Z,24.63
2018-03-06T10:37:37.113Z,25.33
2018-03-06T10:40:05.353Z,24.27
2018-03-06T10:42:33.544Z,24.95
2018-03-06T10:45:01.754Z,25.33
2018-03-06T10:47:29.837Z,23.55
2018-03-06T10:49:58.135Z,27.55
2018-03-06T10:52:26.430Z,24.80
2018-03-06T10:54:54.722Z,30.15
2018-03-06T10:57:23.124Z,29.50
2018-03-06T10:59:51.323Z,25.88
2018-03-06T11:02:19.318Z,24.00
2018-03-06T11:04:47.501Z,22.33
2018-03-06T11:07:15.701Z,24.27
2018-03-06T11:09:43.776Z,25.67
2018-03-06T11:12:11.981Z,28.38
2018-03-06T11:14:40.173Z,28.58
2018-03-06T11:17:08.477Z,23.50
2018-03-06T11:19:36.757Z,28.85
2018-03-06T11:22:04.968Z,28.20
2018-03-06T11:24:33.056Z,29.58
2018-03-06T11:27:01.443Z,28.60
2018-03-06T11:29:29.758Z,30.27
2018-03-06T11:31:58.055Z,27.17
2018-03-06T11:34:26.343Z,28.15
2018-03-06T11:36:54.635Z,27.50
2018-03-06T11:39:22.778Z,25.95
2018-03-06T11:41:51.883Z,23.05
2018-03-06T11:44:20.045Z,25.67
2018-03-06T11:46:48.235Z,25.17
2018-03-06T11:49:16.426Z,25.00
2018-03-06T11:51:44.683Z,24.10
2018-03-06T11:54:12.918Z,24.50
2018-03-06T11:56:41.122Z,28.30
2018-03-06T11:59:09.309Z,26.50
2018-03-06T12:01:37.396Z,24.10
2018-03-06T12:04:05.596Z,26.20
2018-03-06T12:06:33.684Z,26.08
2018-03-06T12:09:01.986Z,26.52
2018-03-06T12:11:30.281Z,23.55
2018-03-06T12:13:58.569Z,24.85
2018-03-06T12:16:26.678Z,22.87
2018-03-06T12:18:54.962Z,22.95
2018-03-06T12:21:23.266Z,25.48
2018-03-06T12:23:51.551Z,22.55
2018-03-06T12:26:19.574Z,25.23
2018-03-06T12:28:47.747Z,24.30
2018-03-06T12:31:15.838Z,22.83
2018-03-06T12:33:44.023Z,22.65
2018-03-06T12:36:12.130Z,24.37
2018-03-06T12:38:40.323Z,22.27
2018-03-06T12:41:08.512Z,24.85
2018-03-06T12:43:36.798Z,21.70
2018-03-06T12:46:04.889Z,22.58
2018-03-06T12:48:33.202Z,22.62
2018-03-06T12:51:01.486Z,25.00
2018-03-06T12:53:29.898Z,22.05
2018-03-06T12:55:58.075Z,24.15
2018-03-06T12:58:26.375Z,24.65
2018-03-06T13:00:54.480Z,22.83
2018-03-06T13:03:23.790Z,23.30
2018-03-06T13:05:51.809Z,25.23
2018-03-06T13:08:19.970Z,21.75
2018-03-06T13:10:48.070Z,23.98
2018-03-06T13:13:16.054Z,26.45
2018-03-06T13:15:44.050Z,24.33
2018-03-06T13:18:12.154Z,24.02
2018-03-06T13:20:40.233Z,27.35
2018-03-06T13:23:08.323Z,23.92
2018-03-06T13:25:36.424Z,25.73
2018-03-06T13:28:04.563Z,26.87
2018-03-06T13:30:32.702Z,27.02
2018-03-06T13:33:00.895Z,24.15
2018-03-06T13:35:28.997Z,32.15
2018-03-06T13:37:57.282Z,26.55
2018-03-06T13:40:25.358Z,27.35
2018-03-06T13:42:53.578Z,29.10
2018-03-06T13:45:21.775Z,26.95
2018-03-06T13:47:49.969Z,23.83
2018-03-06T13:50:18.167Z,32.22
2018-03-06T13:52:46.197Z,26.27
2018-03-06T13:55:14.455Z,23.40
2018-03-06T13:57:42.659Z,29.15
2018-03-06T14:00:10.927Z,25.35
2018-03-06T14:02:39.026Z,24.58
2018-03-06T14:05:07.335Z,24.55
2018-03-06T14:07:35.649Z,21.45
2018-03-06T14:10:03.908Z,21.92
2018-03-06T14:12:32.005Z,21.73
2018-03-06T14:15:00.315Z,28.20
2018-03-06T14:17:28.596Z,24.00
2018-03-06T14:19:56.794Z,25.55
2018-03-06T14:22:25.156Z,21.48
2018-03-06T14:24:53.494Z,25.73
2018-03-06T14:27:21.697Z,24.48
2018-03-06T14:29:49.775Z,28.65
2018-03-06T14:32:18.307Z,28.30
2018-03-06T14:34:46.474Z,27.35
2018-03-06T14:37:14.570Z,27.87
2018-03-06T14:39:42.763Z,29.70
2018-03-06T14:42:10.849Z,30.33
2018-03-06T14:44:39.059Z,32.90
2018-03-06T14:47:07.352Z,27.45
2018-03-06T14:49:35.745Z,22.42
2018-03-06T14:52:03.867Z,25.70
2018-03-06T14:54:32.236Z,26.92
2018-03-06T14:57:00.426Z,32.25
2018-03-06T14:59:28.783Z,27.20
2018-03-06T15:01:57.138Z,30.73
2018-03-06T15:04:25.255Z,32.03
2018-03-06T15:06:53.518Z,31.92
2018-03-06T15:09:21.708Z,30.73
2018-03-06T15:11:49.896Z,35.33
2018-03-06T15:14:18.100Z,28.80
2018-03-06T15:16:47.011Z,32.47
2018-03-06T15:19:15.206Z,37.15
2018-03-06T15:21:43.299Z,34.70
2018-03-06T15:24:11.506Z,29.35
2018-03-06T15:26:39.585Z,30.27
2018-03-06T15:29:07.881Z,34.53
2018-03-06T15:31:36.178Z,29.50
2018-03-06T15:34:04.484Z,32.92
2018-03-06T15:36:32.657Z,34.10
2018-03-06T15:39:00.950Z,33.92
2018-03-06T15:41:29.282Z,37.35
2018-03-06T15:43:58.361Z,30.08
2018-03-06T15:46:26.462Z,33.35
2018-03-06T15:48:54.667Z,30.90
2018-03-06T15:51:22.700Z,33.45
2018-03-06T15:53:50.850Z,28.65
2018-03-06T15:56:18.936Z,32.80
2018-03-06T15:58:47.030Z,38.80
2018-03-06T16:01:15.111Z,36.95
2018-03-06T16:03:43.347Z,31.48
2018-03-06T16:06:11.510Z,36.42
2018-03-06T16:08:39.778Z,38.30
2018-03-06T16:11:07.883Z,32.35
2018-03-06T16:13:36.187Z,36.92
2018-03-06T16:16:04.756Z,40.08
2018-03-06T16:18:33.099Z,35.30
2018-03-06T16:21:01.496Z,39.53
2018-03-06T16:23:30.617Z,39.88
2018-03-06T16:25:59.004Z,40.03
2018-03-06T16:28:27.438Z,44.85
2018-03-06T16:30:55.821Z,46.25
2018-03-06T16:33:23.892Z,39.78
2018-03-06T16:35:52.058Z,43.10
2018-03-06T16:38:20.385Z,44.22
2018-03-06T16:40:48.577Z,45.08
2018-03-06T16:43:16.674Z,45.25
2018-03-06T16:45:44.872Z,38.15
2018-03-06T16:48:12.972Z,47.17
2018-03-06T16:50:41.151Z,45.63
2018-03-06T16:53:09.603Z,48.42
2018-03-06T16:55:37.925Z,53.45
2018-03-06T16:58:06.142Z,47.62
2018-03-06T17:00:34.556Z,39.13
2018-03-06T17:03:02.764Z,39.17
2018-03-06T17:05:30.939Z,40.15
2018-03-06T17:07:59.025Z,47.20
2018-03-06T17:10:27.212Z,45.35
2018-03-06T17:12:55.246Z,44.55
2018-03-06T17:15:23.515Z,44.47
2018-03-06T17:17:51.561Z,44.40
2018-03-06T17:20:19.700Z,40.42
2018-03-06T17:22:47.977Z,44.63
2018-03-06T17:25:16.177Z,44.72
2018-03-06T17:27:44.276Z,41.47
2018-03-06T17:30:12.465Z,47.08
2018-03-06T17:32:40.665Z,49.17
2018-03-06T17:35:08.963Z,48.47
2018-03-06T17:37:37.054Z,40.55
2018-03-06T17:40:05.346Z,44.03
2018-03-06T17:42:33.640Z,45.83
2018-03-06T17:45:01.975Z,45.05
2018-03-06T17:47:30.337Z,42.58
2018-03-06T17:49:58.526Z,45.72
2018-03-06T17:52:26.745Z,43.78
2018-03-06T17:54:54.926Z,53.60
2018-03-06T17:57:23.119Z,51.05
2018-03-06T17:59:51.239Z,48.10
2018-03-06T18:02:19.267Z,46.63
2018-03-06T18:04:47.608Z,48.17
2018-03-06T18:07:15.702Z,47.70
2018-03-06T18:09:43.882Z,44.25
2018-03-06T18:12:12.175Z,82.32
2018-03-06T18:14:40.379Z,68.47
2018-03-06T18:17:08.678Z,53.58
2018-03-06T18:19:39.213Z,66.22
2018-03-06T18:22:07.513Z,58.38
2018-03-06T18:24:35.614Z,46.60
2018-03-06T18:27:03.714Z,54.80
2018-03-06T18:29:31.789Z,51.30
2018-03-06T18:32:00.088Z,50.55
2018-03-06T18:34:28.189Z,49.53
2018-03-06T18:36:56.288Z,48.97
2018-03-06T18:39:25.389Z,55.95
2018-03-06T18:41:53.787Z,54.45
2018-03-06T18:44:22.088Z,46.53
2018-03-06T18:46:50.314Z,48.60
2018-03-06T18:49:18.698Z,71.82
2018-03-06T18:51:46.868Z,58.33
2018-03-06T18:54:14.955Z,55.78
2018-03-06T18:56:43.054Z,58.00
2018-03-06T18:59:11.095Z,54.80
2018-03-06T19:01:39.254Z,60.90
2018-03-06T19:04:07.434Z,69.70
2018-03-06T19:06:35.635Z,63.28
2018-03-06T19:09:03.714Z,55.63
2018-03-06T19:11:31.697Z,56.45
2018-03-06T19:13:59.696Z,61.37
2018-03-06T19:16:27.994Z,51.58
2018-03-06T19:18:56.498Z,46.10
2018-03-06T19:21:24.795Z,47.28
2018-03-06T19:23:52.994Z,67.65
2018-03-06T19:26:21.294Z,66.35
2018-03-06T19:28:49.376Z,58.17
2018-03-06T19:31:17.475Z,47.70
2018-03-06T19:33:45.449Z,50.42
2018-03-06T19:36:13.856Z,49.55
2018-03-06T19:38:41.956Z,48.83
2018-03-06T19:41:10.035Z,51.78
2018-03-06T19:43:38.590Z,55.15
2018-03-06T19:46:09.334Z,55.22
2018-03-06T19:48:37.996Z,58.15
2018-03-06T19:51:06.195Z,51.15
2018-03-06T19:53:34.395Z,60.75
2018-03-06T19:56:06.935Z,57.67
2018-03-06T19:58:41.041Z,53.10
2018-03-06T20:01:10.335Z,60.25
2018-03-06T20:03:39.034Z,57.08
2018-03-06T20:06:07.114Z,62.17
2018-03-06T20:08:35.155Z,65.32
2018-03-06T20:11:03.403Z,64.68
2018-03-06T20:13:31.594Z,54.05
2018-03-06T20:16:00.511Z,56.95
2018-03-06T20:18:28.816Z,56.35
2018-03-06T20:20:56.915Z,56.17
2018-03-06T20:23:27.542Z,52.05
2018-03-06T20:25:57.989Z,60.95
2018-03-06T20:28:27.654Z,59.35
2018-03-06T20:30:57.150Z,62.03
2018-03-06T20:33:29.336Z,54.75
2018-03-06T20:35:59.278Z,55.38
2018-03-06T20:38:28.270Z,50.05
2018-03-06T20:40:57.069Z,51.90
2018-03-06T20:43:25.474Z,61.67
2018-03-06T20:45:53.675Z,52.15
2018-03-06T20:48:21.870Z,56.65
2018-03-06T20:50:49.975Z,52.05
2018-03-06T20:53:18.614Z,52.25
2018-03-06T20:55:47.074Z,49.88
2018-03-06T20:58:15.355Z,49.08
2018-03-06T21:00:43.655Z,47.60
2018-03-06T21:03:11.755Z,55.95
2018-03-06T21:05:39.854Z,55.53
2018-03-06T21:08:08.236Z,56.25
2018-03-06T21:10:36.258Z,55.75
2018-03-06T21:13:04.383Z,57.33
2018-03-06T21:15:32.516Z,222.93
2018-03-06T21:18:00.615Z,166.02
2018-03-06T21:20:28.755Z,110.25
2018-03-06T21:22:57.096Z,72.90
2018-03-06T21:25:25.195Z,67.00
2018-03-06T21:27:53.295Z,62.95
2018-03-06T21:30:21.695Z,80.65
2018-03-06T21:32:50.096Z,87.32
2018-03-06T21:35:18.187Z,77.22
2018-03-06T21:37:46.480Z,58.28
2018-03-06T21:40:14.564Z,57.88
2018-03-06T21:42:42.660Z,56.50
2018-03-06T21:45:10.844Z,52.47
2018-03-06T21:47:39.045Z,51.92
2018-03-06T21:50:07.345Z,49.50
2018-03-06T21:52:35.539Z,53.25
2018-03-06T21:55:03.549Z,61.00
2018-03-06T21:57:31.839Z,43.42
2018-03-06T22:00:00.068Z,50.30
2018-03-06T22:02:28.218Z,54.67
2018-03-06T22:04:56.604Z,52.90
2018-03-06T22:07:25.835Z,48.63
2018-03-06T22:09:53.912Z,47.53
2018-03-06T22:12:22.002Z,55.72
2018-03-06T22:14:50.115Z,53.95
2018-03-06T22:17:18.902Z,52.97
2018-03-06T22:19:47.310Z,51.95
2018-03-06T22:22:15.502Z,43.78
2018-03-06T22:24:43.507Z,55.10
2018-03-06T22:27:11.691Z,45.95
2018-03-06T22:29:40.292Z,45.00
2018-03-06T22:32:08.596Z,49.17
2018-03-06T22:34:36.783Z,53.00
2018-03-06T22:37:04.985Z,54.75
2018-03-06T22:39:33.084Z,46.58
2018-03-06T22:42:02.396Z,51.28
2018-03-06T22:44:30.593Z,43.33
2018-03-06T22:46:58.583Z,42.53
2018-03-06T22:49:26.678Z,49.65
2018-03-06T22:51:54.874Z,44.25
2018-03-06T22:54:22.954Z,45.78
2018-03-06T22:56:51.240Z,54.03
2018-03-06T22:59:19.351Z,46.72
2018-03-06T23:01:47.440Z,47.97
2018-03-06T23:04:15.729Z,55.38
2018-03-06T23:06:43.820Z,51.08
2018-03-06T23:09:11.921Z,54.05
2018-03-06T23:11:40.109Z,60.88
2018-03-06T23:14:08.417Z,68.20
2018-03-06T23:16:36.536Z,69.12
2018-03-06T23:19:04.427Z,60.88
2018-03-06T23:21:32.691Z,60.92
2018-03-06T23:24:00.877Z,58.60
2018-03-06T23:26:29.094Z,63.15
2018-03-06T23:28:57.376Z,59.78
2018-03-06T23:31:25.664Z,57.35
2018-03-06T23:33:53.865Z,56.97
2018-03-06T23:36:22.158Z,59.38
2018-03-06T23:38:50.354Z,60.10
2018-03-06T23:41:18.447Z,57.70
2018-03-06T23:43:46.739Z,62.10
2018-03-06T23:46:15.042Z,71.32
2018-03-06T23:48:43.435Z,59.83
2018-03-06T23:51:11.729Z,70.10
2018-03-06T23:53:40.031Z,70.43
2018-03-06T23:56:08.329Z,65.85
2018-03-06T23:58:36.473Z,69.40
